Time;durP1;ratioP1;P1;durP2;ratioP2;P2;SDS_P1;SDS_P2;PMS_P1;PMS_P2;Temp;Humidity;BMP_temperature;BMP_pressure;BME280_temperature;BME280_humidity;BME280_pressure;Samples;Min_cycle;Max_cycle;Signal;HPM_P1;HPM_P2
2021/06/03 00:02:17;;;;;;;6.35;3.95;;;;;;;13.46;70.13;100251.47;5094262;28;20059;-69
2021/06/03 00:04:49;;;;;;;7.10;3.90;;;;;;;13.49;69.62;100257.44;5094232;28;20040;-70
2021/06/03 00:07:18;;;;;;;5.85;3.70;;;;;;;13.51;69.38;100254.88;5094489;28;20051;-71
2021/06/03 00:09:51;;;;;;;6.85;3.55;;;;;;;13.39;69.26;100261.72;5094060;28;20050;-70
2021/06/03 00:12:21;;;;;;;5.30;3.60;;;;;;;13.18;69.36;100259.22;5094103;28;20493;-70
2021/06/03 00:14:54;;;;;;;5.28;3.58;;;;;;;13.01;70.25;100268.63;5093060;28;20052;-71
2021/06/03 00:17:23;;;;;;;6.45;4.10;;;;;;;12.90;70.68;100269.47;5094091;28;20420;-70
2021/06/03 00:19:55;;;;;;;8.47;3.90;;;;;;;12.72;70.96;100260.94;5093937;28;20060;-70
2021/06/03 00:22:24;;;;;;;5.55;3.72;;;;;;;12.46;71.25;100257.53;5093679;28;20387;-70
2021/06/03 00:24:56;;;;;;;8.20;3.92;;;;;;;12.31;72.04;100262.63;5093659;28;20052;-70
2021/06/03 00:27:26;;;;;;;5.35;3.90;;;;;;;12.34;72.48;100246.41;5093653;28;20044;-70
2021/06/03 00:30:00;;;;;;;5.82;4.15;;;;;;;12.32;72.11;100255.81;5093662;28;20126;-69
2021/06/03 00:32:32;;;;;;;6.45;4.50;;;;;;;12.24;72.53;100255.78;5093957;28;20044;-69
2021/06/03 00:35:05;;;;;;;5.50;3.90;;;;;;;12.29;72.93;100263.47;5093850;28;20147;-70
2021/06/03 00:37:41;;;;;;;6.03;4.00;;;;;;;12.32;72.89;100263.47;5093865;28;20051;-69
2021/06/03 00:40:14;;;;;;;6.25;3.95;;;;;;;12.32;72.88;100260.91;5093754;28;20071;-70
2021/06/03 00:42:48;;;;;;;5.38;3.47;;;;;;;12.35;73.03;100264.34;5093790;28;20600;-70
2021/06/03 00:45:23;;;;;;;5.85;3.88;;;;;;;12.22;72.84;100266.88;5093722;28;20114;-71
2021/06/03 00:47:56;;;;;;;6.38;3.78;;;;;;;12.12;73.13;100260.03;5093747;28;20072;-69
2021/06/03 00:50:30;;;;;;;5.75;3.80;;;;;;;12.07;73.21;100267.69;5092296;28;20059;-70
2021/06/03 00:53:01;;;;;;;6.57;3.75;;;;;;;12.04;73.46;100276.19;5093961;28;20121;-69
2021/06/03 00:55:38;;;;;;;5.75;3.92;;;;;;;11.98;73.80;100277.91;5093660;28;20051;-70
2021/06/03 00:58:16;;;;;;;5.18;3.60;;;;;;;12.09;74.11;100278.81;5093632;28;20555;-69
2021/06/03 01:00:51;;;;;;;7.22;3.50;;;;;;;12.29;73.70;100281.38;5093295;28;20047;-71
2021/06/03 01:03:25;;;;;;;6.57;3.88;;;;;;;12.33;73.45;100280.56;5093254;28;20047;-70
2021/06/03 01:06:01;;;;;;;6.78;3.63;;;;;;;12.44;73.14;100273.75;5093566;28;20477;-71
2021/06/03 01:08:36;;;;;;;6.72;4.30;;;;;;;12.34;73.03;100279.69;5093868;28;20126;-69
2021/06/03 01:11:14;;;;;;;5.97;3.78;;;;;;;12.19;73.36;100282.25;5093466;28;20047;-71
2021/06/03 01:13:53;;;;;;;6.65;3.97;;;;;;;12.17;73.16;100278.78;5091383;28;20051;-69
2021/06/03 01:16:29;;;;;;;5.60;4.00;;;;;;;12.10;73.49;100281.34;5093571;28;20059;-71
2021/06/03 01:19:01;;;;;;;7.22;4.00;;;;;;;12.26;73.36;100282.22;5093462;28;20482;-71
2021/06/03 01:21:35;;;;;;;5.82;3.70;;;;;;;12.34;73.44;100285.66;5093666;28;20052;-71
2021/06/03 01:24:24;;;;;;;7.25;3.92;;;;;;;12.34;72.92;100287.38;5093229;28;20059;-70
2021/06/03 01:26:59;;;;;;;6.78;3.60;;;;;;;12.40;73.04;100289.97;5093401;28;20121;-70
2021/06/03 01:29:43;;;;;;;5.95;3.70;;;;;;;12.45;72.48;100290.81;5093544;28;20044;-71
2021/06/03 01:32:18;;;;;;;6.55;4.22;;;;;;;12.45;72.33;100295.94;5093268;28;20083;-71
2021/06/03 01:34:50;;;;;;;6.22;3.92;;;;;;;12.44;72.27;100289.97;5093290;28;20079;-71
2021/06/03 01:37:23;;;;;;;5.55;3.85;;;;;;;12.42;72.01;100291.66;5093386;28;20052;-71
2021/06/03 01:39:58;;;;;;;7.15;4.05;;;;;;;12.32;71.99;100294.19;5096932;28;20386;-71
2021/06/03 01:42:28;;;;;;;8.18;3.97;;;;;;;12.33;72.35;100290.78;5096798;28;20052;-69
2021/06/03 01:45:01;;;;;;;6.97;3.65;;;;;;;12.30;71.98;100290.78;5096743;28;20397;-71
2021/06/03 01:47:33;;;;;;;10.13;4.28;;;;;;;12.30;72.06;100301.03;5096680;28;20447;-70
2021/06/03 01:50:07;;;;;;;6.15;4.18;;;;;;;12.13;72.09;100300.13;5095514;28;20489;-70
2021/06/03 01:52:46;;;;;;;5.90;3.80;;;;;;;12.13;72.48;100302.69;5095236;28;20148;-71
2021/06/03 01:55:17;;;;;;;6.60;3.33;;;;;;;12.18;72.25;100301.00;5096397;28;20085;-69
2021/06/03 01:57:50;;;;;;;7.85;3.97;;;;;;;12.08;72.33;100306.09;5095342;28;20052;-71
2021/06/03 02:00:26;;;;;;;6.15;3.78;;;;;;;12.03;72.50;100302.66;5096516;28;20473;-70
2021/06/03 02:02:57;;;;;;;6.85;4.10;;;;;;;11.95;72.77;100303.47;5096656;28;20056;-70
2021/06/03 02:05:32;;;;;;;5.90;3.88;;;;;;;12.02;72.56;100306.06;5096122;28;20423;-70
2021/06/03 02:08:05;;;;;;;6.85;4.03;;;;;;;11.96;72.73;100294.94;5096650;28;20074;-71
2021/06/03 02:10:51;;;;;;;8.00;3.83;;;;;;;11.94;72.58;100302.63;5096317;28;20055;-71
2021/06/03 02:13:26;;;;;;;5.93;3.92;;;;;;;11.79;73.04;100302.56;5096166;28;20466;-70
2021/06/03 02:16:04;;;;;;;7.30;4.25;;;;;;;11.69;73.13;100299.94;5094784;28;20040;-70
2021/06/03 02:18:43;;;;;;;5.93;3.78;;;;;;;11.48;73.22;100307.47;5096106;28;20060;-70
2021/06/03 02:21:17;;;;;;;8.30;4.05;;;;;;;11.45;73.52;100310.88;5096100;28;20036;-70
2021/06/03 02:23:51;;;;;;;7.72;3.92;;;;;;;11.47;74.25;100301.50;5095931;28;20048;-71
2021/06/03 02:26:26;;;;;;;7.82;4.05;;;;;;;11.50;74.26;100301.53;5095991;28;20513;-71
2021/06/03 02:29:05;;;;;;;5.72;3.58;;;;;;;11.66;74.11;100300.75;5095921;28;20067;-71
2021/06/03 02:31:37;;;;;;;5.28;3.58;;;;;;;11.76;73.54;100287.19;5095879;28;20139;-70
2021/06/03 02:34:10;;;;;;;6.55;3.92;;;;;;;11.81;73.24;100298.31;5095823;28;20055;-70
2021/06/03 02:36:41;;;;;;;7.13;3.65;;;;;;;11.87;72.69;100295.78;5095530;28;20067;-70
2021/06/03 02:39:10;;;;;;;;;;;;;;;11.78;73.26;100300.00;5096125;28;20078;-70
2021/06/03 02:41:44;;;;;;;5.60;3.55;;;;;;;11.73;73.31;100306.81;5095685;28;19920;-71
2021/06/03 02:44:18;;;;;;;7.75;4.30;;;;;;;11.84;73.29;100310.25;5111570;28;20058;-70
2021/06/03 02:46:50;;;;;;;7.10;3.60;;;;;;;11.84;72.99;100311.13;5094384;28;20046;-71
2021/06/03 02:49:23;;;;;;;5.35;3.50;;;;;;;11.77;72.75;100309.38;5094564;28;20054;-71
2021/06/03 02:51:55;;;;;;;8.70;4.20;;;;;;;11.76;73.35;100305.09;5094603;28;20142;-71
2021/06/03 02:54:30;;;;;;;6.05;3.83;;;;;;;11.84;72.86;100311.13;5094151;28;20044;-70
2021/06/03 02:57:04;;;;;;;7.90;3.80;;;;;;;11.84;73.01;100313.66;5095376;28;20048;-70
2021/06/03 02:59:37;;;;;;;5.30;3.42;;;;;;;11.82;72.60;100322.19;5095123;28;20052;-72
2021/06/03 03:02:07;;;;;;;5.60;3.55;;;;;;;11.84;72.87;100317.91;5095255;28;20105;-69
2021/06/03 03:04:39;;;;;;;7.00;4.10;;;;;;;11.84;72.43;100320.47;5095045;28;20101;-70
2021/06/03 03:07:12;;;;;;;5.30;3.35;;;;;;;11.81;72.06;100326.44;5095175;28;20490;-69
2021/06/03 03:09:42;;;;;;;6.13;3.80;;;;;;;11.79;72.42;100328.13;5095509;28;20150;-71
2021/06/03 03:12:16;;;;;;;5.57;3.63;;;;;;;11.81;72.08;100329.00;5095372;28;20066;-71
2021/06/03 03:14:53;;;;;;;6.07;3.80;;;;;;;11.82;72.56;100329.84;5093973;28;20539;-70
2021/06/03 03:17:25;;;;;;;5.75;3.72;;;;;;;11.85;72.63;100328.16;5095334;28;20080;-72
2021/06/03 03:19:57;;;;;;;6.18;3.90;;;;;;;11.91;72.53;100333.31;5095223;28;20044;-71
2021/06/03 03:22:32;;;;;;;7.68;4.25;;;;;;;11.90;71.88;100329.03;5093710;28;20071;-70
2021/06/03 03:25:06;;;;;;;9.45;5.60;;;;;;;12.00;72.11;100342.72;5094641;28;20040;-71
2021/06/03 03:27:40;;;;;;;8.18;5.07;;;;;;;12.03;72.31;100338.47;5094864;28;20130;-69
2021/06/03 03:30:16;;;;;;;12.40;6.18;;;;;;;12.04;71.88;100345.28;5094812;28;20089;-70
2021/06/03 03:32:46;;;;;;;21.67;10.13;;;;;;;12.18;72.39;100352.16;4690059;22;20052;-67
2021/06/03 03:35:17;;;;;;;19.83;9.93;;;;;;;12.23;72.10;100355.59;5074340;28;20080;-67
2021/06/03 03:37:50;;;;;;;23.17;10.32;;;;;;;12.26;71.66;100335.16;5074665;28;20052;-69
2021/06/03 03:40:23;;;;;;;13.30;6.90;;;;;;;12.35;71.92;100346.25;5074331;28;20057;-67
2021/06/03 03:42:58;;;;;;;14.07;6.20;;;;;;;12.37;71.71;100339.44;5073081;28;20079;-67
2021/06/03 03:45:32;;;;;;;14.52;7.32;;;;;;;12.44;72.15;100337.75;5073938;28;20556;-69
2021/06/03 03:48:03;;;;;;;15.38;7.97;;;;;;;12.52;71.87;100348.88;5074187;28;20110;-67
2021/06/03 03:50:37;;;;;;;21.23;7.68;;;;;;;12.60;71.92;100358.25;5073987;28;20076;-68
2021/06/03 03:53:08;;;;;;;18.13;8.10;;;;;;;12.64;71.98;100348.88;5074092;28;20508;-68
2021/06/03 03:55:39;;;;;;;18.63;9.68;;;;;;;12.72;71.93;100349.72;5073979;28;20044;-67
2021/06/03 03:58:15;;;;;;;17.63;9.30;;;;;;;12.80;71.58;100350.59;5074102;28;20064;-68
2021/06/03 04:00:47;;;;;;;14.73;7.75;;;;;;;12.77;71.20;100340.34;5073553;28;20056;-68
2021/06/03 04:03:24;;;;;;;19.80;10.90;;;;;;;12.87;71.35;100352.31;5074326;28;20508;-68
2021/06/03 04:06:02;;;;;;;27.70;15.38;;;;;;;12.96;71.10;100361.72;5073737;28;20493;-69
2021/06/03 04:08:34;;;;;;;25.48;13.40;;;;;;;12.99;70.71;100361.72;5073977;28;20060;-68
2021/06/03 04:11:07;;;;;;;28.13;14.57;;;;;;;13.00;70.83;100359.19;5073944;28;20052;-68
2021/06/03 04:13:45;;;;;;;18.33;9.63;;;;;;;12.96;71.12;100352.31;5072735;28;20507;-69
2021/06/03 04:16:17;;;;;;;15.43;8.43;;;;;;;12.95;71.35;100345.50;5073509;28;20071;-69
2021/06/03 04:18:47;;;;;;;11.30;6.15;;;;;;;13.10;71.41;100350.63;5073857;28;20486;-69
2021/06/03 04:21:16;;;;;;;12.88;8.00;;;;;;;13.18;70.96;100359.19;5072581;28;20056;-68
2021/06/03 04:23:46;;;;;;;17.27;8.68;;;;;;;13.16;71.34;100337.84;5074031;28;20051;-69
2021/06/03 04:26:17;;;;;;;11.60;6.30;;;;;;;13.29;71.25;100342.09;5073724;28;20072;-69
2021/06/03 04:28:51;;;;;;;7.68;4.57;;;;;;;13.38;71.21;100338.66;5073456;28;20047;-68
2021/06/03 04:31:20;;;;;;;7.32;4.07;;;;;;;13.51;70.87;100342.91;5073523;28;20071;-68
2021/06/03 04:33:52;;;;;;;4.85;3.22;;;;;;;13.61;70.66;100348.88;5033718;28;20088;-68
2021/06/03 04:36:24;;;;;;;7.22;4.45;;;;;;;13.63;70.58;100349.75;5033705;28;20096;-69
2021/06/03 04:38:56;;;;;;;11.38;5.53;;;;;;;13.70;70.58;100352.25;5033433;28;20045;-68
2021/06/03 04:41:28;;;;;;;14.00;6.35;;;;;;;13.83;71.02;100356.53;5033704;28;20406;-70
2021/06/03 04:44:01;;;;;;;21.25;8.75;;;;;;;14.12;70.70;100353.84;5032463;28;20103;-70
2021/06/03 04:46:34;;;;;;;17.65;8.68;;;;;;;14.49;69.97;100355.38;5033551;28;20076;-69
2021/06/03 04:49:06;;;;;;;15.88;7.05;;;;;;;14.81;68.83;100362.03;5032733;28;20057;-70
2021/06/03 04:51:39;;;;;;;12.82;6.35;;;;;;;15.07;68.43;100365.28;5033543;28;20072;-70
2021/06/03 04:54:11;;;;;;;11.20;6.00;;;;;;;15.33;67.75;100368.50;5033556;28;20073;-68
2021/06/03 04:56:40;;;;;;;10.25;5.07;;;;;;;15.55;67.01;100369.19;5033722;28;20045;-70
2021/06/03 04:59:14;;;;;;;7.68;4.53;;;;;;;15.72;66.35;100368.13;5033369;28;20450;-71
2021/06/03 05:01:46;;;;;;;7.00;4.50;;;;;;;15.95;65.86;100361.03;5033503;28;20057;-69
2021/06/03 05:04:16;;;;;;;7.20;4.45;;;;;;;16.09;64.90;100359.13;5033465;28;20120;-69
2021/06/03 05:06:45;;;;;;;6.30;3.97;;;;;;;16.18;63.90;100363.31;5032213;28;20069;-69
2021/06/03 05:09:14;;;;;;;8.27;3.33;;;;;;;16.34;62.95;100363.97;5033371;28;20067;-70
2021/06/03 05:11:43;;;;;;;8.32;4.30;;;;;;;16.50;62.70;100366.31;5033381;28;20417;-70
2021/06/03 05:14:17;;;;;;;6.28;3.72;;;;;;;16.65;61.98;100370.44;5036283;28;20100;-69
2021/06/03 05:16:46;;;;;;;8.68;4.57;;;;;;;16.82;61.45;100367.63;5037563;28;20372;-70
2021/06/03 05:19:18;;;;;;;6.63;4.00;;;;;;;16.97;61.06;100383.69;5036815;28;20080;-70
2021/06/03 05:21:50;;;;;;;7.18;4.30;;;;;;;17.13;60.54;100379.97;5037353;28;20071;-71
2021/06/03 05:24:22;;;;;;;5.55;4.00;;;;;;;17.17;59.70;100381.66;5037103;28;20073;-69
2021/06/03 05:26:55;;;;;;;11.25;4.32;;;;;;;17.22;58.82;100389.31;5036628;28;20128;-69
2021/06/03 05:29:29;;;;;;;6.38;3.55;;;;;;;17.26;58.50;100385.81;5035789;28;20057;-70
2021/06/03 05:32:01;;;;;;;7.28;4.00;;;;;;;17.37;58.32;100389.91;5044674;28;20048;-70
2021/06/03 05:34:30;;;;;;;6.10;3.80;;;;;;;17.46;57.78;100388.06;5076805;28;20087;-70
2021/06/03 05:36:59;;;;;;;8.85;4.90;;;;;;;17.51;57.69;100388.84;5076760;28;20058;-70
2021/06/03 05:39:31;;;;;;;9.30;4.05;;;;;;;17.64;57.06;100392.91;5076520;28;20037;-70
2021/06/03 05:42:04;;;;;;;8.63;3.90;;;;;;;17.79;57.03;100387.47;5092291;28;20052;-69
2021/06/03 05:44:37;;;;;;;7.32;3.65;;;;;;;17.98;56.02;100399.16;5076497;28;20075;-69
2021/06/03 05:47:09;;;;;;;9.52;4.00;;;;;;;17.98;55.63;100399.16;5076172;28;20131;-70
2021/06/03 05:49:41;;;;;;;5.90;3.42;;;;;;;18.05;55.11;100395.56;5076178;28;20045;-70
2021/06/03 05:52:10;;;;;;;6.38;4.13;;;;;;;18.12;55.06;100386.81;5076420;28;20447;-69
2021/06/03 05:54:42;;;;;;;6.10;4.00;;;;;;;18.33;54.71;100401.88;5076314;28;20052;-70
2021/06/03 05:57:11;;;;;;;8.77;3.83;;;;;;;18.48;54.49;100399.03;5076653;28;20323;-69
2021/06/03 05:59:44;;;;;;;6.65;3.90;;;;;;;18.39;54.37;100396.59;5076192;28;20508;-69
2021/06/03 06:02:19;;;;;;;6.28;3.45;;;;;;;18.21;54.32;100396.97;5076278;28;20139;-69
2021/06/03 06:07:37;;;;;;;6.13;3.35;;;;;;;17.93;54.42;100400.97;5076143;28;20059;-68
2021/06/03 06:10:12;;;;;;;6.43;3.58;;;;;;;17.83;54.70;100383.94;5075758;28;20482;-69
2021/06/03 06:12:41;;;;;;;6.45;3.75;;;;;;;18.00;54.98;100399.97;5076011;28;20054;-69
2021/06/03 06:15:13;;;;;;;10.97;4.00;;;;;;;17.90;55.14;100393.31;5075897;28;20102;-69
2021/06/03 06:17:45;;;;;;;7.25;3.55;;;;;;;17.92;55.09;100409.63;5075908;28;20288;-70
2021/06/03 06:20:15;;;;;;;6.82;3.88;;;;;;;17.99;55.85;100411.22;5075889;28;20048;-69
2021/06/03 06:22:43;;;;;;;;;;;;;;;18.03;55.51;100402.50;5076202;28;20123;-70
2021/06/03 06:25:13;;;;;;;6.60;3.17;;;;;;;18.22;55.20;100409.00;5075471;28;20333;-70
2021/06/03 06:27:46;;;;;;;6.68;3.67;;;;;;;18.40;55.04;100408.66;5074519;28;20466;-69
2021/06/03 06:30:20;;;;;;;5.70;3.78;;;;;;;18.42;55.14;100413.78;5075578;28;20125;-70
2021/06/03 06:32:52;;;;;;;9.40;4.00;;;;;;;18.44;54.94;100415.47;5074749;28;20468;-69
2021/06/03 06:35:24;;;;;;;5.97;4.10;;;;;;;18.54;54.84;100417.00;5075515;28;20513;-70
2021/06/03 06:37:57;;;;;;;7.22;3.80;;;;;;;18.60;54.79;100422.03;5075516;28;20056;-69
2021/06/03 06:40:29;;;;;;;6.28;3.40;;;;;;;18.71;53.89;100422.63;5075445;28;20550;-70
2021/06/03 06:42:58;;;;;;;6.43;3.30;;;;;;;18.74;52.83;100414.81;5075231;28;20126;-69
2021/06/03 06:45:31;;;;;;;12.23;4.07;;;;;;;18.71;52.77;100409.69;5075039;28;20044;-69
2021/06/03 06:48:03;;;;;;;4.95;3.05;;;;;;;18.78;52.31;100420.78;5075279;28;20478;-69
2021/06/03 06:50:33;;;;;;;4.38;3.13;;;;;;;18.70;52.02;100428.72;5075258;28;20057;-68
2021/06/03 06:53:08;;;;;;;7.22;3.55;;;;;;;18.67;52.16;100428.78;5074917;28;20118;-70
2021/06/03 06:55:37;;;;;;;8.95;3.67;;;;;;;18.68;52.29;100427.91;5075036;28;20060;-69
2021/06/03 06:58:09;;;;;;;4.70;2.85;;;;;;;18.76;52.35;100427.72;5074459;28;20051;-70
2021/06/03 07:00:44;;;;;;;4.78;2.95;;;;;;;18.85;52.10;100431.84;5075156;28;20053;-70
2021/06/03 07:03:13;;;;;;;7.22;3.58;;;;;;;18.96;51.68;100435.03;5074824;28;20056;-70
2021/06/03 07:05:45;;;;;;;4.43;2.92;;;;;;;19.26;51.34;100434.31;5074551;28;20075;-69
2021/06/03 07:08:18;;;;;;;5.20;3.13;;;;;;;19.37;51.08;100432.34;5075233;28;20128;-70
2021/06/03 07:10:53;;;;;;;5.68;3.50;;;;;;;19.45;50.42;100429.56;5073884;28;20397;-69
2021/06/03 07:13:23;;;;;;;9.90;3.00;;;;;;;19.54;50.27;100427.59;5073533;28;20083;-70
2021/06/03 07:15:54;;;;;;;5.80;3.08;;;;;;;19.75;50.31;100434.81;5074755;28;20047;-69
2021/06/03 07:18:25;;;;;;;8.43;3.28;;;;;;;19.88;50.13;100433.63;5074679;28;20382;-70
2021/06/03 07:20:54;;;;;;;5.90;3.30;;;;;;;20.10;49.50;100435.63;5074484;28;20560;-69
2021/06/03 07:23:23;;;;;;;6.97;3.30;;;;;;;20.39;48.92;100430.53;5074493;28;20119;-69
2021/06/03 07:25:55;;;;;;;5.82;3.60;;;;;;;20.75;48.63;100426.84;5074390;28;20048;-70
2021/06/03 07:28:27;;;;;;;6.90;2.80;;;;;;;21.13;48.13;100433.47;5074386;28;20123;-69
2021/06/03 07:31:01;;;;;;;6.35;3.40;;;;;;;21.25;46.15;100431.34;5074428;28;20139;-70
2021/06/03 07:33:33;;;;;;;5.45;2.63;;;;;;;21.11;45.96;100430.94;5073227;28;20052;-70
2021/06/03 07:36:07;;;;;;;5.05;2.70;;;;;;;21.17;45.05;100428.13;5072669;28;20079;-70
2021/06/03 07:38:37;;;;;;;6.55;2.72;;;;;;;21.14;45.36;100430.81;5073069;28;20510;-70
2021/06/03 07:41:08;;;;;;;9.20;2.58;;;;;;;21.14;44.90;100436.00;5074485;28;20053;-69
2021/06/03 07:43:43;;;;;;;4.25;2.67;;;;;;;21.35;44.53;100430.13;5074490;28;20079;-69
2021/06/03 07:46:17;;;;;;;5.53;2.90;;;;;;;21.46;44.02;100431.53;5074143;28;20048;-70
2021/06/03 07:48:46;;;;;;;5.40;2.70;;;;;;;21.51;43.66;100434.81;5073762;28;20087;-69
2021/06/03 07:51:15;;;;;;;6.47;2.83;;;;;;;21.59;43.53;100435.41;5074009;28;20040;-70
2021/06/03 07:53:43;;;;;;;5.17;2.50;;;;;;;21.69;44.01;100429.03;5073930;28;20043;-70
2021/06/03 07:56:12;;;;;;;5.47;2.93;;;;;;;21.57;44.02;100432.03;5073777;28;20303;-68
2021/06/03 07:58:44;;;;;;;5.63;2.87;;;;;;;21.68;43.73;100432.50;5073860;28;20076;-69
2021/06/03 08:01:13;;;;;;;5.20;2.45;;;;;;;21.45;43.64;100427.25;5073665;28;20552;-69
2021/06/03 08:03:44;;;;;;;5.53;2.90;;;;;;;21.71;43.75;100432.41;5073579;28;20401;-70
2021/06/03 08:06:17;;;;;;;6.30;3.15;;;;;;;21.90;44.14;100428.31;5073510;28;20044;-70
2021/06/03 08:08:45;;;;;;;4.57;2.80;;;;;;;21.68;42.35;100422.13;5074063;28;20064;-69
2021/06/03 08:11:17;;;;;;;3.95;2.30;;;;;;;21.48;42.25;100424.53;5074092;28;20535;-69
2021/06/03 08:13:46;;;;;;;4.35;2.50;;;;;;;21.79;41.90;100432.97;5074088;28;20489;-69
2021/06/03 08:16:15;;;;;;;6.78;2.85;;;;;;;22.01;41.80;100421.81;5072884;28;20131;-70
2021/06/03 08:18:45;;;;;;;4.85;2.40;;;;;;;21.86;41.58;100422.34;5073385;28;20044;-70
2021/06/03 08:21:14;;;;;;;5.80;2.97;;;;;;;21.78;42.21;100428.69;5073609;28;20036;-70
2021/06/03 08:23:46;;;;;;;5.90;2.67;;;;;;;21.87;42.30;100431.00;5073446;28;20037;-69
2021/06/03 08:26:15;;;;;;;4.45;2.38;;;;;;;21.67;43.30;100425.59;5089217;28;20289;-70
2021/06/03 08:28:47;;;;;;;4.57;2.80;;;;;;;22.04;44.03;100423.47;5073663;28;20110;-67
2021/06/03 08:31:19;;;;;;;4.82;2.67;;;;;;;21.76;43.11;100417.50;5073325;28;20056;-70
2021/06/03 08:33:53;;;;;;;4.05;2.20;;;;;;;21.67;43.19;100425.59;5072697;28;20072;-69
2021/06/03 08:36:27;;;;;;;4.97;2.35;;;;;;;21.87;42.86;100418.00;5072399;28;20052;-70
2021/06/03 08:38:59;;;;;;;4.60;2.70;;;;;;;22.04;42.31;100423.47;5072329;28;20098;-70
2021/06/03 08:41:28;;;;;;;4.40;2.50;;;;;;;22.42;41.77;100420.31;5071980;28;20048;-70
2021/06/03 08:43:57;;;;;;;4.53;2.83;;;;;;;22.77;41.44;100418.16;5073821;28;20041;-70
2021/06/03 08:46:29;;;;;;;4.38;2.60;;;;;;;22.86;40.59;100423.00;5073507;28;20053;-69
2021/06/03 08:49:01;;;;;;;3.92;2.35;;;;;;;22.96;39.53;100424.34;5077542;28;20482;-69
2021/06/03 08:51:49;;;;;;;6.25;2.92;;;;;;;22.90;39.51;100416.75;5077756;28;20059;-69
2021/06/03 08:54:22;;;;;;;5.63;2.90;;;;;;;22.79;39.16;100412.00;5077409;28;20517;-69
2021/06/03 08:56:51;;;;;;;4.97;2.70;;;;;;;22.98;39.02;100418.19;5077293;28;20063;-70
2021/06/03 08:59:20;;;;;;;6.07;2.60;;;;;;;23.25;39.15;100421.44;5077055;28;20040;-70
2021/06/03 09:01:49;;;;;;;4.88;2.55;;;;;;;23.27;39.46;100419.59;5077233;28;20055;-70
2021/06/03 09:04:23;;;;;;;4.45;2.80;;;;;;;23.19;39.74;100417.31;5077046;28;20553;-70
2021/06/03 09:06:52;;;;;;;5.25;2.70;;;;;;;23.32;40.31;100417.66;5077380;28;20052;-71
2021/06/03 09:09:29;;;;;;;7.00;2.47;;;;;;;23.37;40.32;100420.94;5077604;28;20048;-70
2021/06/03 09:12:12;;;;;;;5.72;2.80;;;;;;;23.41;39.41;100412.09;5075891;28;20072;-67
2021/06/03 09:14:44;;;;;;;5.60;2.80;;;;;;;23.52;40.16;100416.84;5077057;28;20071;-70
2021/06/03 09:17:14;;;;;;;4.63;2.78;;;;;;;23.69;40.06;100420.44;5076632;28;20498;-69
2021/06/03 09:19:52;;;;;;;;;;;;;;;23.68;39.61;100413.53;5077425;28;20520;-70
2021/06/03 09:22:37;;;;;;;4.83;3.00;;;;;;;23.64;39.19;100417.19;5076736;28;19946;-71
2021/06/03 09:25:30;;;;;;;4.80;2.78;;;;;;;23.86;38.35;100415.38;5075383;28;20115;-70
2021/06/03 09:28:18;;;;;;;4.60;2.92;;;;;;;23.92;39.44;100407.25;5069867;28;20111;-70
2021/06/03 09:31:12;;;;;;;4.82;2.72;;;;;;;24.26;40.01;100403.22;5076640;28;20036;-69
2021/06/03 09:33:45;;;;;;;5.28;3.10;;;;;;;24.09;39.00;100403.94;5070733;28;20053;-70
2021/06/03 09:36:19;;;;;;;4.43;2.78;;;;;;;23.93;39.98;100411.56;5076356;28;20482;-70
2021/06/03 09:38:56;;;;;;;6.38;2.90;;;;;;;24.19;39.02;100401.75;5076754;28;20055;-68
2021/06/03 09:41:27;;;;;;;4.13;2.55;;;;;;;24.38;38.21;100402.63;5076136;28;20080;-69
2021/06/03 09:44:09;;;;;;;4.82;2.83;;;;;;;24.60;37.71;100403.34;5076085;28;20057;-70
2021/06/03 09:46:44;;;;;;;5.20;3.10;;;;;;;24.72;38.16;100404.50;5075247;28;20052;-70
2021/06/03 09:49:19;;;;;;;5.30;2.80;;;;;;;24.49;38.58;100400.38;5076153;28;20083;-71
2021/06/03 09:51:52;;;;;;;5.20;2.92;;;;;;;24.17;38.69;100403.59;5075855;28;20048;-69
2021/06/03 09:54:22;;;;;;;5.15;2.75;;;;;;;24.15;38.88;100395.00;5076284;28;20048;-69
2021/06/03 09:56:54;;;;;;;5.10;2.70;;;;;;;24.23;38.50;100398.97;5076259;28;20131;-70
2021/06/03 09:59:31;;;;;;;5.40;2.67;;;;;;;24.51;38.63;100396.78;5075282;28;20135;-70
2021/06/03 10:02:06;;;;;;;5.32;2.70;;;;;;;24.68;37.98;100401.22;5076159;28;20048;-70
2021/06/03 10:04:43;;;;;;;5.45;2.63;;;;;;;24.53;38.12;100391.47;5076244;28;20048;-69
2021/06/03 10:07:19;;;;;;;4.75;2.67;;;;;;;24.73;38.54;100399.25;5075986;28;20052;-70
2021/06/03 10:09:57;;;;;;;4.10;2.58;;;;;;;24.68;38.31;100396.00;5075892;28;20044;-69
2021/06/03 10:12:42;;;;;;;6.03;2.60;;;;;;;24.78;38.28;100393.81;5076000;28;20106;-70
2021/06/03 10:15:36;;;;;;;4.88;2.80;;;;;;;24.81;38.54;100396.31;5074786;28;20078;-70
2021/06/03 10:18:11;;;;;;;4.30;2.63;;;;;;;25.04;37.85;100389.03;5075707;28;20048;-69
2021/06/03 10:20:45;;;;;;;4.78;2.65;;;;;;;25.08;38.20;100389.72;5075943;28;20053;-70
2021/06/03 10:23:20;;;;;;;4.55;2.60;;;;;;;24.95;37.45;100388.66;5074600;28;20055;-69
2021/06/03 10:25:57;;;;;;;4.10;2.70;;;;;;;24.87;37.93;100388.16;5075779;28;20551;-69
2021/06/03 10:28:26;;;;;;;6.35;2.35;;;;;;;24.59;38.54;100380.78;5075351;28;20040;-69
2021/06/03 10:31:05;;;;;;;4.68;2.60;;;;;;;24.67;38.89;100389.06;5075994;28;20044;-69
2021/06/03 10:33:37;;;;;;;4.23;2.40;;;;;;;24.93;39.29;100383.47;5074517;28;20053;-66
2021/06/03 10:36:09;;;;;;;5.32;2.80;;;;;;;24.95;39.11;100384.28;5075588;28;20796;-69
2021/06/03 10:38:42;;;;;;;4.72;2.85;;;;;;;25.35;38.13;100377.06;5075297;28;20048;-70
2021/06/03 10:41:13;;;;;;;4.10;2.53;;;;;;;25.44;37.56;100379.22;5075779;28;20044;-65
2021/06/03 10:43:45;;;;;;;3.60;2.50;;;;;;;25.15;37.10;100378.91;5075432;28;20056;-69
2021/06/03 10:46:18;;;;;;;6.18;2.72;;;;;;;25.34;36.23;100378.81;5075339;28;20506;-67
2021/06/03 10:48:47;;;;;;;4.32;2.70;;;;;;;25.27;36.93;100375.69;5073799;28;20048;-68
2021/06/03 10:51:20;;;;;;;3.67;2.70;;;;;;;25.19;36.90;100375.22;5075544;28;20118;-70
2021/06/03 10:53:53;;;;;;;6.07;2.88;;;;;;;25.04;36.24;100362.91;5074960;28;20087;-71
2021/06/03 10:56:26;;;;;;;4.30;2.45;;;;;;;25.17;36.89;100369.22;5074875;28;20151;-70
2021/06/03 10:58:58;;;;;;;5.65;2.83;;;;;;;25.25;36.94;100369.69;5090776;28;20131;-70
2021/06/03 11:01:27;;;;;;;6.68;2.55;;;;;;;24.99;36.25;100358.84;5075035;28;20056;-70
2021/06/03 11:03:59;;;;;;;4.80;3.00;;;;;;;24.99;37.02;100354.47;5074991;28;20052;-70
2021/06/03 11:06:43;;;;;;;5.28;2.33;;;;;;;25.42;37.07;100362.75;5074528;28;20447;-70
2021/06/03 11:09:14;;;;;;;4.30;2.40;;;;;;;25.64;36.65;100358.16;5074940;28;20485;-70
2021/06/03 11:11:51;;;;;;;4.45;2.80;;;;;;;25.91;35.98;100361.97;5074833;28;20048;-70
2021/06/03 11:14:20;;;;;;;4.95;3.00;;;;;;;25.63;34.75;100361.69;5074643;28;20482;-65
2021/06/03 11:16:54;;;;;;;4.35;2.30;;;;;;;25.36;34.17;100353.47;5074702;28;20147;-71
2021/06/03 11:19:24;;;;;;;4.60;2.60;;;;;;;25.79;36.37;100358.22;5074628;28;20102;-69
2021/06/03 11:22:00;;;;;;;5.95;2.60;;;;;;;26.08;35.83;100356.69;5074247;28;20098;-69
2021/06/03 11:24:45;;;;;;;5.03;2.92;;;;;;;25.92;36.45;100351.41;5074589;28;20059;-69
2021/06/03 11:27:22;;;;;;;6.53;2.78;;;;;;;25.84;37.14;100344.91;5074340;28;20121;-69
2021/06/03 11:29:59;;;;;;;4.38;3.05;;;;;;;26.09;36.59;100355.75;5074401;28;20481;-69
2021/06/03 11:32:35;;;;;;;5.07;3.15;;;;;;;25.99;36.43;100348.47;5073842;28;20443;-69
2021/06/03 11:35:09;;;;;;;5.00;2.88;;;;;;;25.50;36.90;100353.66;5074320;28;20143;-69
2021/06/03 11:37:51;;;;;;;6.05;2.72;;;;;;;25.55;38.09;100348.19;5073948;28;20051;-69
2021/06/03 11:40:24;;;;;;;5.05;2.60;;;;;;;25.97;38.43;100345.94;5072801;28;20045;-70
2021/06/03 11:43:09;;;;;;;6.13;2.97;;;;;;;26.29;36.10;100342.47;5074222;28;20053;-70
2021/06/03 11:45:45;;;;;;;5.78;2.90;;;;;;;25.37;35.97;100338.63;5072686;28;20420;-70
2021/06/03 11:48:23;;;;;;;4.90;2.72;;;;;;;25.34;37.29;100338.81;5074297;28;20040;-70
2021/06/03 11:51:12;;;;;;;5.30;2.85;;;;;;;25.04;37.22;100341.16;5074117;28;20093;-70
2021/06/03 11:53:53;;;;;;;7.85;3.10;;;;;;;25.16;37.14;100335.34;5066303;28;20509;-70
2021/06/03 11:56:27;;;;;;;5.20;2.88;;;;;;;25.67;37.03;100332.72;5074259;28;20375;-68